createdAt,value
2018-08-12T00:00:22.113Z,4.57
2018-08-12T00:02:51.019Z,6.73
2018-08-12T00:05:19.970Z,3.20
2018-08-12T00:07:48.870Z,4.40
2018-08-12T00:10:17.781Z,5.13
2018-08-12T00:12:47.412Z,4.62
2018-08-12T00:15:18.444Z,4.13
2018-08-12T00:17:47.413Z,4.20
2018-08-12T00:20:18.285Z,3.23
2018-08-12T00:22:47.777Z,5.17
2018-08-12T00:25:17.981Z,3.00
2018-08-12T00:27:46.961Z,3.57
2018-08-12T00:30:16.856Z,3.67
2018-08-12T00:32:45.777Z,3.77
2018-08-12T00:35:30.940Z,2.30
2018-08-12T00:37:59.505Z,5.07
2018-08-12T00:40:28.210Z,4.33
2018-08-12T00:42:56.741Z,4.80
2018-08-12T00:45:25.258Z,6.60
2018-08-12T00:47:53.770Z,5.87
2018-08-12T00:50:22.357Z,4.03
2018-08-12T00:52:50.929Z,5.93
2018-08-12T00:55:19.450Z,3.33
2018-08-12T00:57:48.421Z,2.60
2018-08-12T01:00:21.353Z,4.70
2018-08-12T01:02:49.884Z,3.57
2018-08-12T01:05:19.274Z,4.47
2018-08-12T01:07:48.702Z,5.97
2018-08-12T01:10:17.980Z,6.07
2018-08-12T01:12:46.496Z,5.70
2018-08-12T01:15:19.230Z,5.03
2018-08-12T01:17:48.852Z,4.80
2018-08-12T01:20:19.219Z,4.13
2018-08-12T01:22:47.788Z,5.10
2018-08-12T01:25:16.327Z,5.03
2018-08-12T01:27:44.941Z,4.20
2018-08-12T01:30:15.763Z,6.27
2018-08-12T01:32:44.855Z,6.37
2018-08-12T01:35:14.146Z,5.23
2018-08-12T01:37:43.774Z,5.93
2018-08-12T01:40:13.824Z,5.13
2018-08-12T01:42:43.014Z,5.63
2018-08-12T01:45:13.590Z,9.70
2018-08-12T01:47:42.178Z,6.50
2018-08-12T01:50:11.900Z,6.33
2018-08-12T01:52:40.547Z,5.83
2018-08-12T01:55:09.110Z,6.50
2018-08-12T01:57:37.621Z,5.17
2018-08-12T02:00:07.668Z,7.60
2018-08-12T02:02:36.169Z,9.23
2018-08-12T02:05:05.533Z,7.70
2018-08-12T02:07:34.102Z,6.73
2018-08-12T02:10:02.728Z,8.00
2018-08-12T02:12:31.334Z,11.73
2018-08-12T02:14:59.928Z,7.80
2018-08-12T02:17:28.454Z,5.83
2018-08-12T02:19:56.993Z,6.63
2018-08-12T02:22:25.646Z,9.17
2018-08-12T02:24:54.308Z,6.77
2018-08-12T02:27:22.836Z,12.10
2018-08-12T02:29:51.358Z,6.30
2018-08-12T02:32:19.867Z,7.80
2018-08-12T02:34:48.452Z,6.73
2018-08-12T02:37:17.030Z,8.00
2018-08-12T02:39:45.593Z,8.63
2018-08-12T02:42:14.103Z,8.67
2018-08-12T02:44:42.605Z,12.17
2018-08-12T02:47:11.177Z,8.53
2018-08-12T02:49:39.746Z,7.50
2018-08-12T02:52:08.345Z,10.85
2018-08-12T02:54:36.949Z,9.47
2018-08-12T02:57:05.474Z,13.33
2018-08-12T02:59:34.000Z,10.77
2018-08-12T03:02:02.557Z,9.27
2018-08-12T03:04:31.061Z,13.77
2018-08-12T03:06:59.649Z,13.43
2018-08-12T03:09:28.165Z,12.70
2018-08-12T03:11:56.688Z,12.73
2018-08-12T03:14:25.318Z,10.60
2018-08-12T03:16:53.834Z,14.03
2018-08-12T03:19:22.461Z,9.37
2018-08-12T03:21:51.011Z,12.10
2018-08-12T03:24:19.522Z,18.30
2018-08-12T03:26:48.065Z,14.80
2018-08-12T03:29:16.615Z,13.13
2018-08-12T03:31:45.142Z,16.00
2018-08-12T03:34:13.654Z,15.93
2018-08-12T03:36:42.163Z,12.03
2018-08-12T03:39:11.849Z,12.80
2018-08-12T03:41:40.375Z,15.90
2018-08-12T03:44:08.978Z,14.27
2018-08-12T03:46:37.711Z,15.10
2018-08-12T03:49:06.421Z,13.57
2018-08-12T03:51:35.004Z,11.07
2018-08-12T03:54:03.693Z,13.80
2018-08-12T03:56:32.232Z,10.83
2018-08-12T03:59:00.814Z,11.00
2018-08-12T04:01:29.498Z,12.83
2018-08-12T04:03:58.066Z,11.30
2018-08-12T04:06:26.589Z,10.87
2018-08-12T04:08:55.117Z,14.63
2018-08-12T04:11:23.663Z,15.60
2018-08-12T04:13:52.217Z,10.37
2018-08-12T04:16:20.769Z,15.10
2018-08-12T04:18:49.310Z,9.57
2018-08-12T04:21:17.878Z,13.47
2018-08-12T04:23:46.407Z,10.10
2018-08-12T04:26:14.917Z,12.17
2018-08-12T04:28:43.473Z,9.77
2018-08-12T04:31:12.019Z,11.40
2018-08-12T04:33:40.565Z,9.20
2018-08-12T04:36:09.089Z,10.23
2018-08-12T04:38:37.628Z,12.83
2018-08-12T04:41:06.224Z,10.87
2018-08-12T04:43:34.777Z,12.40
2018-08-12T04:46:03.400Z,11.17
2018-08-12T04:48:32.089Z,11.53
2018-08-12T04:51:00.672Z,8.47
2018-08-12T04:53:29.209Z,9.83
2018-08-12T04:55:57.781Z,12.30
2018-08-12T04:58:26.300Z,8.90
2018-08-12T05:00:54.826Z,11.47
2018-08-12T05:03:23.366Z,12.70
2018-08-12T05:05:55.551Z,9.77
2018-08-12T05:08:24.078Z,11.50
2018-08-12T05:10:52.584Z,10.33
2018-08-12T05:13:21.098Z,9.13
2018-08-12T05:15:49.633Z,8.47
2018-08-12T05:18:18.193Z,6.83
2018-08-12T05:20:46.753Z,10.20
2018-08-12T05:23:15.301Z,7.87
2018-08-12T05:25:43.825Z,8.37
2018-08-12T05:28:12.343Z,9.33
2018-08-12T05:30:40.910Z,7.00
2018-08-12T05:33:09.489Z,9.47
2018-08-12T05:35:38.021Z,10.80
2018-08-12T05:38:06.670Z,8.13
2018-08-12T05:40:35.227Z,6.03
2018-08-12T05:43:03.770Z,7.23
2018-08-12T05:45:32.328Z,9.00
2018-08-12T05:48:00.846Z,7.87
2018-08-12T05:50:29.402Z,6.73
2018-08-12T05:52:57.943Z,9.13
2018-08-12T05:55:26.504Z,8.13
2018-08-12T05:57:55.126Z,7.17
2018-08-12T06:00:23.743Z,8.57
2018-08-12T06:02:52.298Z,8.83
2018-08-12T06:05:20.931Z,8.80
2018-08-12T06:07:49.471Z,8.63
2018-08-12T06:10:18.031Z,5.40
2018-08-12T06:12:46.563Z,8.87
2018-08-12T06:15:18.081Z,11.90
2018-08-12T06:17:46.701Z,9.77
2018-08-12T06:20:15.485Z,8.23
2018-08-12T06:22:44.009Z,8.77
2018-08-12T06:25:12.867Z,10.70
2018-08-12T06:27:41.511Z,6.13
2018-08-12T06:30:12.166Z,10.00
2018-08-12T06:32:40.725Z,10.60
2018-08-12T06:35:10.953Z,8.40
2018-08-12T06:37:39.569Z,9.03
2018-08-12T06:40:10.963Z,8.20
2018-08-12T06:42:40.492Z,10.87
2018-08-12T06:45:11.303Z,9.67
2018-08-12T06:47:40.035Z,8.60
2018-08-12T06:50:09.681Z,8.20
2018-08-12T06:52:39.094Z,6.13
2018-08-12T06:55:08.935Z,6.70
2018-08-12T06:57:37.494Z,9.13
2018-08-12T07:00:07.938Z,8.07
2018-08-12T07:02:36.537Z,5.60
2018-08-12T07:05:06.447Z,6.63
2018-08-12T07:07:34.992Z,6.97
2018-08-12T07:10:03.965Z,5.57
2018-08-12T07:12:32.467Z,6.97
2018-08-12T07:15:01.031Z,10.23
2018-08-12T07:17:30.331Z,8.87
2018-08-12T07:19:59.193Z,6.70
2018-08-12T07:22:27.718Z,8.47
2018-08-12T07:24:56.274Z,9.00
2018-08-12T07:27:24.861Z,6.63
2018-08-12T07:29:53.397Z,10.37
2018-08-12T07:32:21.994Z,8.97
2018-08-12T07:34:50.620Z,6.87
2018-08-12T07:37:19.161Z,9.17
2018-08-12T07:39:47.714Z,11.07
2018-08-12T07:42:16.294Z,9.10
2018-08-12T07:44:44.905Z,8.10
2018-08-12T07:47:14.250Z,5.27
2018-08-12T07:49:42.800Z,8.97
2018-08-12T07:52:11.346Z,7.50
2018-08-12T07:54:39.979Z,7.07
2018-08-12T07:57:08.522Z,6.70
2018-08-12T07:59:37.990Z,4.97
2018-08-12T08:02:06.537Z,4.37
2018-08-12T08:04:35.133Z,4.03
2018-08-12T08:07:03.688Z,4.37
2018-08-12T08:09:32.227Z,10.77
2018-08-12T08:12:00.753Z,3.23
2018-08-12T08:14:29.310Z,1.30
2018-08-12T08:16:57.912Z,4.00
2018-08-12T08:19:26.598Z,4.77
2018-08-12T08:21:55.155Z,1.53
2018-08-12T08:24:23.818Z,3.07
2018-08-12T08:26:52.385Z,2.53
2018-08-12T08:29:20.934Z,3.00
2018-08-12T08:31:49.820Z,3.73
2018-08-12T08:34:18.505Z,1.47
2018-08-12T08:36:47.430Z,2.70
2018-08-12T08:39:16.034Z,1.73
2018-08-12T08:41:44.691Z,5.03
2018-08-12T08:44:13.422Z,4.67
2018-08-12T08:46:42.301Z,1.60
2018-08-12T08:49:10.927Z,3.33
2018-08-12T08:51:39.658Z,2.27
2018-08-12T08:54:08.476Z,3.43
2018-08-12T08:56:37.113Z,2.67
2018-08-12T08:59:05.839Z,2.57
2018-08-12T09:01:34.440Z,1.77
2018-08-12T09:04:03.722Z,2.03
2018-08-12T09:06:32.372Z,1.40
2018-08-12T09:09:01.070Z,3.23
2018-08-12T09:11:29.513Z,1.87
2018-08-12T09:13:58.230Z,2.70
2018-08-12T09:16:26.882Z,1.50
2018-08-12T09:18:55.694Z,2.00
2018-08-12T09:21:24.479Z,4.30
2018-08-12T09:23:53.236Z,1.30
2018-08-12T09:26:21.718Z,3.03
2018-08-12T09:28:50.726Z,1.97
2018-08-12T09:31:19.278Z,4.93
2018-08-12T09:33:48.073Z,3.73
2018-08-12T09:36:16.697Z,4.37
2018-08-12T09:38:45.281Z,2.93
2018-08-12T09:41:14.026Z,3.83
2018-08-12T09:43:42.706Z,1.90
2018-08-12T09:46:11.408Z,2.10
2018-08-12T09:48:40.221Z,3.73
2018-08-12T09:51:08.922Z,5.23
2018-08-12T09:53:37.610Z,2.13
2018-08-12T09:56:06.206Z,2.50
2018-08-12T09:58:34.992Z,2.23
2018-08-12T10:01:03.546Z,2.60
2018-08-12T10:03:32.115Z,4.13
2018-08-12T10:06:00.783Z,3.33
2018-08-12T10:08:29.364Z,2.67
2018-08-12T10:10:58.041Z,2.07
2018-08-12T10:13:26.664Z,1.50
2018-08-12T10:15:55.345Z,1.73
2018-08-12T10:18:24.114Z,4.73
2018-08-12T10:20:52.838Z,2.53
2018-08-12T10:23:21.506Z,3.83
2018-08-12T10:25:50.162Z,2.73
2018-08-12T10:28:18.849Z,3.37
2018-08-12T10:30:47.383Z,4.73
2018-08-12T10:33:15.921Z,3.20
2018-08-12T10:35:44.450Z,3.17
2018-08-12T10:38:13.027Z,1.73
2018-08-12T10:40:41.574Z,1.43
2018-08-12T10:43:10.141Z,3.63
2018-08-12T10:45:38.806Z,3.97
2018-08-12T10:48:07.589Z,2.57
2018-08-12T10:50:36.172Z,3.23
2018-08-12T10:53:04.886Z,3.00
2018-08-12T10:55:33.511Z,4.40
2018-08-12T10:58:02.409Z,2.53
2018-08-12T11:00:33.383Z,3.10
2018-08-12T11:03:02.083Z,2.50
2018-08-12T11:05:30.661Z,1.97
2018-08-12T11:07:59.877Z,1.73
2018-08-12T11:10:29.140Z,2.80
2018-08-12T11:12:57.704Z,2.83
2018-08-12T11:15:26.591Z,3.37
2018-08-12T11:17:55.137Z,3.37
2018-08-12T11:20:23.729Z,2.03
2018-08-12T11:22:52.250Z,4.80
2018-08-12T11:25:20.797Z,2.83
2018-08-12T11:27:49.402Z,3.03
2018-08-12T11:30:18.515Z,1.43
2018-08-12T11:32:47.209Z,5.37
2018-08-12T11:35:16.754Z,6.53
2018-08-12T11:37:45.725Z,1.40
2018-08-12T11:40:14.847Z,1.90
2018-08-12T11:42:43.696Z,1.93
2018-08-12T11:45:13.561Z,4.83
2018-08-12T11:47:42.637Z,2.57
2018-08-12T11:50:11.799Z,1.97
2018-08-12T11:52:41.313Z,2.70
2018-08-12T11:55:11.829Z,2.35
2018-08-12T11:57:41.269Z,1.82
2018-08-12T12:00:14.644Z,1.60
2018-08-12T12:02:43.815Z,4.50
2018-08-12T12:05:14.511Z,3.27
2018-08-12T12:07:43.226Z,3.25
2018-08-12T12:10:14.226Z,4.95
2018-08-12T12:12:43.796Z,2.75
2018-08-12T12:15:22.528Z,1.92
2018-08-12T12:17:51.039Z,2.40
2018-08-12T12:20:20.102Z,2.22
2018-08-12T12:22:48.881Z,2.70
2018-08-12T12:25:26.989Z,1.50
2018-08-12T12:27:56.573Z,3.10
2018-08-12T12:30:26.133Z,4.00
2018-08-12T12:32:54.873Z,1.37
2018-08-12T12:35:23.407Z,3.40
2018-08-12T12:37:51.947Z,3.17
2018-08-12T12:40:21.338Z,4.35
2018-08-12T12:42:55.862Z,3.65
2018-08-12T12:45:24.597Z,2.12
2018-08-12T12:48:01.207Z,4.00
2018-08-12T12:50:29.948Z,2.55
2018-08-12T12:52:58.449Z,3.72
2018-08-12T12:55:27.008Z,3.70
2018-08-12T12:57:55.560Z,2.52
2018-08-12T13:00:24.085Z,4.42
2018-08-12T13:02:52.825Z,1.62
2018-08-12T13:05:22.637Z,4.47
2018-08-12T13:07:51.617Z,4.83
2018-08-12T13:10:20.407Z,2.02
2018-08-12T13:12:49.088Z,2.02
2018-08-12T13:15:17.795Z,3.22
2018-08-12T13:17:50.805Z,2.85
2018-08-12T13:20:20.701Z,8.18
2018-08-12T13:22:50.281Z,2.15
2018-08-12T13:25:21.497Z,1.85
2018-08-12T13:27:51.464Z,2.77
2018-08-12T13:30:21.273Z,4.45
2018-08-12T13:32:50.691Z,2.10
2018-08-12T13:35:19.232Z,3.10
2018-08-12T13:37:47.760Z,3.42
2018-08-12T13:40:17.678Z,3.70
2018-08-12T13:42:48.711Z,3.52
2018-08-12T13:45:17.228Z,1.85
2018-08-12T13:47:46.290Z,2.27
2018-08-12T13:50:25.117Z,1.20
2018-08-12T13:52:55.640Z,2.37
2018-08-12T13:55:24.531Z,5.40
2018-08-12T13:57:58.150Z,3.12
2018-08-12T14:00:28.871Z,1.32
2018-08-12T14:03:01.770Z,3.40
2018-08-12T14:05:33.615Z,4.10
2018-08-12T14:08:02.139Z,1.22
2018-08-12T14:10:33.769Z,2.67
2018-08-12T14:13:07.561Z,2.80
2018-08-12T14:15:37.385Z,1.20
2018-08-12T14:18:22.994Z,2.00
2018-08-12T14:20:52.764Z,2.47
2018-08-12T14:23:25.235Z,6.28
2018-08-12T14:25:55.974Z,5.10
2018-08-12T14:28:33.363Z,3.37
2018-08-12T14:31:08.404Z,2.52
2018-08-12T14:33:59.458Z,2.35
2018-08-12T14:36:38.744Z,1.30
2018-08-12T14:39:13.104Z,2.72
2018-08-12T14:41:42.256Z,2.50
2018-08-12T14:44:10.822Z,1.20
2018-08-12T14:46:47.415Z,1.52
2018-08-12T14:52:11.174Z,1.85
2018-08-12T14:54:47.684Z,4.67
2018-08-12T14:57:21.207Z,1.90
2018-08-12T14:59:49.785Z,3.27
2018-08-12T15:02:18.336Z,1.55
2018-08-12T15:04:46.880Z,2.20
2018-08-12T15:07:16.515Z,1.75
2018-08-12T15:09:47.090Z,1.80
2018-08-12T15:12:16.574Z,1.77
2018-08-12T15:14:51.305Z,3.22
2018-08-12T15:17:22.751Z,3.67
2018-08-12T15:19:58.197Z,4.20
2018-08-12T15:22:33.661Z,3.87
2018-08-12T15:25:10.625Z,10.08
2018-08-12T15:27:43.137Z,2.72
2018-08-12T15:30:17.017Z,2.27
2018-08-12T15:32:49.129Z,3.22
2018-08-12T15:35:20.269Z,4.58
2018-08-12T15:37:52.544Z,2.12
2018-08-12T15:40:22.730Z,4.95
2018-08-12T15:42:55.121Z,2.60
2018-08-12T15:45:29.938Z,0.90
2018-08-12T15:47:58.574Z,3.33
2018-08-12T15:50:27.143Z,3.27
2018-08-12T15:52:55.805Z,5.80
2018-08-12T15:55:27.233Z,1.82
2018-08-12T15:57:57.823Z,1.75
2018-08-12T16:00:27.094Z,1.85
2018-08-12T16:02:57.163Z,4.72
2018-08-12T16:05:26.266Z,4.55
2018-08-12T16:07:54.905Z,3.30
2018-08-12T16:10:24.098Z,5.00
2018-08-12T16:12:55.264Z,5.28
2018-08-12T16:15:24.894Z,4.00
2018-08-12T16:17:53.837Z,3.62
2018-08-12T16:20:22.450Z,2.72
2018-08-12T16:22:51.998Z,2.62
2018-08-12T16:25:21.705Z,5.10
2018-08-12T16:27:53.856Z,3.40
2018-08-12T16:30:31.594Z,1.92
2018-08-12T16:33:01.930Z,1.87
2018-08-12T16:35:44.052Z,1.95
2018-08-12T16:38:13.769Z,2.75
2018-08-12T16:40:45.633Z,1.95
2018-08-12T16:43:15.441Z,3.75
2018-08-12T16:45:49.167Z,3.75
2018-08-12T16:48:24.402Z,1.85
2018-08-12T16:50:59.433Z,3.05
2018-08-12T16:53:43.635Z,1.42
2018-08-12T16:56:29.085Z,3.08
2018-08-12T16:59:08.101Z,2.33
2018-08-12T17:01:49.998Z,2.52
2018-08-12T17:04:33.194Z,3.52
2018-08-12T17:07:08.676Z,5.20
2018-08-12T17:09:41.337Z,3.02
2018-08-12T17:12:15.497Z,2.27
2018-08-12T17:14:46.759Z,1.87
2018-08-12T17:17:19.098Z,2.60
2018-08-12T17:19:47.672Z,4.17
2018-08-12T17:22:18.631Z,5.95
2018-08-12T17:24:54.161Z,2.52
2018-08-12T17:27:22.914Z,3.95
2018-08-12T17:29:53.353Z,3.27
2018-08-12T17:32:21.974Z,4.53
2018-08-12T17:34:50.549Z,3.50
2018-08-12T17:37:20.186Z,2.77
2018-08-12T17:39:49.968Z,4.67
2018-08-12T17:42:18.578Z,3.20
2018-08-12T17:44:47.173Z,3.20
2018-08-12T17:47:15.698Z,4.28
2018-08-12T17:49:44.213Z,3.70
2018-08-12T17:52:12.773Z,2.58
2018-08-12T17:54:41.306Z,4.22
2018-08-12T17:57:11.168Z,2.40
2018-08-12T17:59:42.874Z,4.33
2018-08-12T18:02:17.492Z,3.83
2018-08-12T18:04:50.581Z,3.93
2018-08-12T18:07:21.255Z,6.17
2018-08-12T18:10:00.231Z,8.20
2018-08-12T18:12:36.359Z,4.10
2018-08-12T18:15:13.445Z,3.50
2018-08-12T18:17:52.576Z,6.35
2018-08-12T18:20:27.543Z,3.02
2018-08-12T18:22:58.273Z,3.00
2018-08-12T18:25:27.954Z,2.45
2018-08-12T18:27:57.173Z,3.73
2018-08-12T18:30:25.709Z,4.87
2018-08-12T18:32:54.464Z,5.73
2018-08-12T18:35:26.438Z,2.67
2018-08-12T18:37:57.145Z,3.47
2018-08-12T18:40:27.516Z,4.40
2018-08-12T18:42:57.260Z,2.80
2018-08-12T18:45:25.801Z,4.27
2018-08-12T18:47:57.421Z,6.73
2018-08-12T18:50:27.549Z,6.45
2018-08-12T18:52:56.049Z,4.83
2018-08-12T18:55:25.974Z,3.90
2018-08-12T18:57:54.656Z,2.87
2018-08-12T19:00:23.222Z,3.03
2018-08-12T19:02:52.444Z,5.10
2018-08-12T19:05:20.964Z,4.17
2018-08-12T19:07:50.285Z,4.03
2018-08-12T19:10:18.845Z,3.00
2018-08-12T19:12:48.405Z,3.57
2018-08-12T19:15:16.931Z,3.67
2018-08-12T19:17:45.471Z,4.67
2018-08-12T19:20:14.050Z,3.40
2018-08-12T19:22:42.579Z,6.10
2018-08-12T19:25:11.117Z,4.60
2018-08-12T19:27:39.642Z,3.07
2018-08-12T19:30:10.365Z,4.93
2018-08-12T19:32:41.091Z,3.30
2018-08-12T19:35:11.553Z,4.20
2018-08-12T19:37:40.145Z,5.53
2018-08-12T19:40:09.181Z,2.60
2018-08-12T19:42:45.623Z,3.10
2018-08-12T19:45:15.207Z,3.47
2018-08-12T19:47:46.983Z,2.47
2018-08-12T19:50:15.595Z,4.77
2018-08-12T19:52:44.161Z,4.23
2018-08-12T19:55:12.706Z,3.47
2018-08-12T19:57:42.181Z,9.77
2018-08-12T20:00:13.033Z,4.17
2018-08-12T20:02:42.195Z,5.03
2018-08-12T20:05:10.886Z,5.17
2018-08-12T20:07:51.148Z,4.20
2018-08-12T20:10:19.790Z,3.03
2018-08-12T20:12:48.385Z,5.23
2018-08-12T20:15:16.928Z,10.07
2018-08-12T20:17:45.501Z,2.67
2018-08-12T20:20:14.149Z,4.07
2018-08-12T20:22:42.758Z,4.80
2018-08-12T20:25:13.184Z,4.55
2018-08-12T20:27:48.547Z,3.53
2018-08-12T20:30:17.131Z,3.87
2018-08-12T20:32:45.679Z,5.57
2018-08-12T20:35:14.275Z,4.80
2018-08-12T20:37:43.001Z,3.37
2018-08-12T20:40:11.590Z,2.50
2018-08-12T20:42:40.160Z,4.27
2018-08-12T20:45:10.236Z,3.77
2018-08-12T20:47:38.787Z,3.27
2018-08-12T20:50:11.085Z,3.60
2018-08-12T20:52:41.065Z,4.07
2018-08-12T20:55:12.331Z,3.73
2018-08-12T20:57:41.482Z,5.27
2018-08-12T21:00:10.613Z,7.63
2018-08-12T21:02:40.746Z,3.83
2018-08-12T21:05:11.659Z,3.63
2018-08-12T21:07:46.327Z,4.20
2018-08-12T21:10:14.880Z,5.43
2018-08-12T21:12:43.478Z,4.53
2018-08-12T21:15:14.719Z,4.30
2018-08-12T21:17:43.501Z,4.27
2018-08-12T21:20:12.603Z,3.33
2018-08-12T21:22:41.898Z,6.07
2018-08-12T21:25:10.467Z,5.37
2018-08-12T21:27:39.606Z,5.17
2018-08-12T21:30:08.784Z,5.30
2018-08-12T21:32:37.350Z,5.83
2018-08-12T21:35:06.386Z,5.03
2018-08-12T21:37:35.003Z,6.77
2018-08-12T21:40:07.810Z,4.70
2018-08-12T21:42:37.429Z,5.80
2018-08-12T21:45:08.536Z,7.43
2018-08-12T21:47:38.368Z,5.37
2018-08-12T21:50:07.154Z,4.00
2018-08-12T21:52:40.056Z,5.53
2018-08-12T21:55:09.143Z,4.63
2018-08-12T21:57:38.842Z,3.73
2018-08-12T22:00:10.832Z,4.83
2018-08-12T22:02:40.807Z,6.20
2018-08-12T22:05:11.956Z,6.37
2018-08-12T22:07:41.424Z,6.33
2018-08-12T22:10:09.967Z,3.67
2018-08-12T22:12:39.094Z,3.37
2018-08-12T22:15:08.277Z,4.00
2018-08-12T22:17:39.292Z,3.43
2018-08-12T22:20:07.930Z,5.37
2018-08-12T22:22:36.509Z,5.40
2018-08-12T22:25:05.282Z,3.70
2018-08-12T22:27:34.494Z,4.07
2018-08-12T22:30:03.059Z,5.50
2018-08-12T22:32:35.217Z,4.47
2018-08-12T22:35:03.782Z,6.43
2018-08-12T22:37:32.337Z,6.97
2018-08-12T22:40:03.266Z,3.93
2018-08-12T22:42:32.496Z,5.50
2018-08-12T22:45:01.442Z,3.07
2018-08-12T22:47:31.628Z,3.83
2018-08-12T22:50:02.662Z,7.23
2018-08-12T22:52:32.494Z,4.43
2018-08-12T22:55:01.042Z,4.30
2018-08-12T22:57:30.502Z,4.50
2018-08-12T22:59:59.177Z,4.90
2018-08-12T23:02:30.473Z,4.40
2018-08-12T23:05:00.031Z,4.07
2018-08-12T23:07:28.757Z,3.83
2018-08-12T23:09:58.313Z,6.37
2018-08-12T23:12:26.937Z,4.20
2018-08-12T23:15:02.277Z,9.97
2018-08-12T23:17:32.095Z,3.93
2018-08-12T23:20:01.849Z,5.00
2018-08-12T23:22:30.382Z,4.30
2018-08-12T23:24:58.986Z,3.40
2018-08-12T23:27:27.517Z,4.13
2018-08-12T23:29:56.221Z,3.40
2018-08-12T23:32:24.739Z,3.83
2018-08-12T23:34:54.521Z,4.37
2018-08-12T23:37:23.053Z,2.70
2018-08-12T23:39:51.573Z,5.67
2018-08-12T23:42:20.173Z,4.23
2018-08-12T23:44:48.740Z,3.67
2018-08-12T23:47:17.403Z,2.73
2018-08-12T23:49:45.989Z,3.70
2018-08-12T23:52:14.753Z,5.83
2018-08-12T23:54:44.106Z,3.60
2018-08-12T23:57:13.645Z,5.63
2018-08-12T23:59:42.241Z,3.90
